createdAt,value
2022-12-14T00:00:42.101Z,100232.21
2022-12-14T00:03:22.007Z,100235.34
2022-12-14T00:05:54.529Z,100236.77
2022-12-14T00:08:25.473Z,100234.89
2022-12-14T00:10:59.039Z,100231.75
2022-12-14T00:13:33.276Z,100230.58
2022-12-14T00:16:20.085Z,100230.64
2022-12-14T00:18:57.027Z,100234.60
2022-12-14T00:21:32.204Z,100233.44
2022-12-14T00:24:04.833Z,100234.64
2022-12-14T00:26:35.537Z,100239.36
2022-12-14T00:29:06.378Z,100236.64
2022-12-14T00:31:39.471Z,100237.81
2022-12-14T00:34:11.841Z,100242.63
2022-12-14T00:36:42.323Z,100241.67
2022-12-14T00:39:12.965Z,100240.56
2022-12-14T00:41:43.840Z,100236.30
2022-12-14T00:44:15.228Z,100237.41
2022-12-14T00:46:52.229Z,100237.08
2022-12-14T00:49:22.954Z,100235.71
2022-12-14T00:51:53.662Z,100235.88
2022-12-14T00:54:24.174Z,100232.02
2022-12-14T00:56:54.817Z,100228.76
2022-12-14T00:59:27.461Z,100231.13
2022-12-14T01:01:59.985Z,100233.71
2022-12-14T01:04:30.980Z,100233.37
2022-12-14T01:07:04.694Z,100229.32
2022-12-14T01:09:35.531Z,100232.84
2022-12-14T01:12:06.233Z,100233.56
2022-12-14T01:14:37.056Z,100234.60
2022-12-14T01:17:08.684Z,100237.89
2022-12-14T01:19:39.275Z,100239.11
2022-12-14T01:22:13.794Z,100236.35
2022-12-14T01:24:47.965Z,100231.95
2022-12-14T01:27:19.277Z,100227.82
2022-12-14T01:29:50.260Z,100226.45
2022-12-14T01:32:21.370Z,100225.41
2022-12-14T01:34:52.208Z,100226.64
2022-12-14T01:37:22.587Z,100226.61
2022-12-14T01:39:54.346Z,100226.34
2022-12-14T01:42:25.054Z,100228.95
2022-12-14T01:44:58.378Z,100231.58
2022-12-14T01:47:57.919Z,100231.54
2022-12-14T01:50:47.808Z,100232.86
2022-12-14T01:53:23.202Z,100228.09
2022-12-14T01:55:57.264Z,100224.48
2022-12-14T01:58:29.331Z,100225.89
2022-12-14T02:01:03.167Z,100224.89
2022-12-14T02:03:43.267Z,100228.29
2022-12-14T02:06:20.957Z,100228.56
2022-12-14T02:08:55.818Z,100224.83
2022-12-14T02:11:37.908Z,100223.86
2022-12-14T02:14:08.870Z,100224.63
2022-12-14T02:16:42.239Z,100226.59
2022-12-14T02:19:13.937Z,100225.08
2022-12-14T02:22:15.579Z,100222.22
2022-12-14T02:25:08.205Z,100218.23
2022-12-14T02:28:21.927Z,100223.13
2022-12-14T02:31:07.613Z,100222.45
2022-12-14T02:34:00.856Z,100226.27
2022-12-14T02:36:41.874Z,100224.35
2022-12-14T02:39:35.759Z,100230.52
2022-12-14T02:42:10.241Z,100230.48
2022-12-14T02:44:59.544Z,100227.04
2022-12-14T02:47:43.805Z,100222.69
2022-12-14T02:50:24.924Z,100228.33
2022-12-14T02:53:10.854Z,100220.48
2022-12-14T02:55:56.238Z,100218.41
2022-12-14T02:58:51.284Z,100219.06
2022-12-14T03:01:28.134Z,100216.46
2022-12-14T03:04:09.135Z,100212.91
2022-12-14T03:07:05.194Z,100212.77
2022-12-14T03:09:40.175Z,100211.20
2022-12-14T03:12:18.187Z,100211.09
2022-12-14T03:14:57.169Z,100207.84
2022-12-14T03:17:36.187Z,100209.55
2022-12-14T03:20:15.116Z,100206.55
2022-12-14T03:23:04.215Z,100201.41
2022-12-14T03:26:04.221Z,100204.89
2022-12-14T03:28:48.229Z,100201.29
2022-12-14T03:31:33.743Z,100202.83
2022-12-14T03:34:13.103Z,100204.30
2022-12-14T03:37:29.225Z,100197.73
2022-12-14T03:40:03.642Z,100199.15
2022-12-14T03:43:02.441Z,100200.66
2022-12-14T03:46:07.408Z,100200.47
2022-12-14T03:49:13.216Z,100205.89
2022-12-14T03:52:11.160Z,100205.27
2022-12-14T03:55:12.223Z,100207.13
2022-12-14T03:58:32.211Z,100208.80
2022-12-14T04:07:12.818Z,100201.40
2022-12-14T04:09:49.599Z,100199.13
2022-12-14T04:12:51.503Z,100202.33
2022-12-14T04:15:46.843Z,100205.33
2022-12-14T04:18:44.665Z,100207.71
2022-12-14T04:21:24.229Z,100214.66
2022-12-14T04:24:17.545Z,100215.33
2022-12-14T04:26:56.937Z,100215.81
2022-12-14T04:29:48.670Z,100216.45
2022-12-14T04:32:50.580Z,100214.77
2022-12-14T04:35:40.192Z,100210.58
2022-12-14T04:38:23.670Z,100213.45
2022-12-14T04:40:57.912Z,100214.59
2022-12-14T04:43:36.469Z,100211.10
2022-12-14T04:46:11.863Z,100209.98
2022-12-14T04:48:52.836Z,100209.86
2022-12-14T04:52:06.727Z,100211.75
2022-12-14T04:54:59.694Z,100204.70
2022-12-14T04:57:36.018Z,100204.20
2022-12-14T05:00:07.578Z,100203.94
2022-12-14T05:02:47.409Z,100201.98
2022-12-14T05:05:28.717Z,100204.19
2022-12-14T05:08:23.977Z,100205.81
2022-12-14T05:11:48.131Z,100200.67
2022-12-14T05:14:03.357Z,100196.33
2022-12-14T05:16:42.412Z,100194.34
2022-12-14T05:19:19.425Z,100194.36
2022-12-14T05:21:52.146Z,100195.30
2022-12-14T05:24:22.946Z,100193.28
2022-12-14T05:26:53.586Z,100190.69
2022-12-14T05:29:24.256Z,100192.69
2022-12-14T05:31:54.890Z,100195.73
2022-12-14T05:34:25.809Z,100197.10
2022-12-14T05:36:56.331Z,100193.05
2022-12-14T05:39:27.009Z,100197.85
2022-12-14T05:42:00.628Z,100199.02
2022-12-14T05:44:31.355Z,100198.42
2022-12-14T05:47:01.896Z,100195.09
2022-12-14T05:49:32.278Z,100194.83
2022-12-14T05:52:04.199Z,100191.65
2022-12-14T05:54:35.828Z,100195.30
2022-12-14T05:57:07.214Z,100197.48
2022-12-14T05:59:38.023Z,100197.85
2022-12-14T06:02:10.867Z,100196.20
2022-12-14T06:04:41.870Z,100194.50
2022-12-14T06:07:15.357Z,100193.64
2022-12-14T06:09:46.098Z,100191.85
2022-12-14T06:12:16.654Z,100190.73
2022-12-14T06:14:47.154Z,100194.38
2022-12-14T06:17:17.639Z,100198.32
2022-12-14T06:19:50.917Z,100200.18
2022-12-14T06:22:22.407Z,100204.00
2022-12-14T06:24:52.947Z,100207.19
2022-12-14T06:27:23.319Z,100202.77
2022-12-14T06:29:55.344Z,100202.56
2022-12-14T06:32:26.253Z,100204.12
2022-12-14T06:34:59.008Z,100206.59
2022-12-14T06:37:33.243Z,100209.35
2022-12-14T06:40:05.034Z,100209.21
2022-12-14T06:42:35.566Z,100210.85
2022-12-14T06:45:07.459Z,100216.48
2022-12-14T06:47:40.875Z,100217.16
2022-12-14T06:50:15.764Z,100218.96
2022-12-14T06:52:51.348Z,100219.55
2022-12-14T06:55:25.874Z,100219.58
2022-12-14T06:57:57.385Z,100219.05
2022-12-14T07:00:27.989Z,100219.20
2022-12-14T07:02:58.903Z,100222.66
2022-12-14T07:05:29.435Z,100222.77
2022-12-14T07:08:00.545Z,100222.46
2022-12-14T07:10:31.036Z,100222.37
2022-12-14T07:13:01.676Z,100221.34
2022-12-14T07:15:42.802Z,100223.98
2022-12-14T07:18:13.238Z,100232.22
2022-12-14T07:20:45.195Z,100236.89
2022-12-14T07:23:21.205Z,100240.42
2022-12-14T07:26:03.655Z,100240.48
2022-12-14T07:28:38.956Z,100240.96
2022-12-14T07:31:17.682Z,100243.89
2022-12-14T07:33:48.710Z,100245.70
2022-12-14T07:36:21.707Z,100251.67
2022-12-14T07:38:57.366Z,100255.27
2022-12-14T07:41:32.935Z,100258.25
2022-12-14T07:44:04.220Z,100255.65
2022-12-14T07:46:34.958Z,100249.92
2022-12-14T07:49:05.977Z,100253.14
2022-12-14T07:51:41.224Z,100247.33
2022-12-14T07:54:13.393Z,100244.88
2022-12-14T07:56:48.494Z,100240.93
2022-12-14T07:59:20.180Z,100245.70
2022-12-14T08:01:50.979Z,100251.63
2022-12-14T08:04:22.123Z,100256.42
2022-12-14T08:06:52.669Z,100256.88
2022-12-14T08:09:23.289Z,100261.74
2022-12-14T08:11:53.884Z,100260.90
2022-12-14T08:14:24.922Z,100258.22
2022-12-14T08:16:55.330Z,100256.30
2022-12-14T08:19:27.275Z,100251.55
2022-12-14T08:21:57.697Z,100253.13
2022-12-14T08:24:28.418Z,100250.02
2022-12-14T08:26:58.767Z,100248.72
2022-12-14T08:29:32.145Z,100246.54
2022-12-14T08:32:03.029Z,100241.76
2022-12-14T08:34:37.931Z,100243.02
2022-12-14T08:37:08.383Z,100239.52
2022-12-14T08:39:39.291Z,100237.47
2022-12-14T08:42:09.655Z,100236.65
2022-12-14T08:44:40.225Z,100239.96
2022-12-14T08:47:10.753Z,100239.05
2022-12-14T08:49:41.735Z,100242.62
2022-12-14T08:52:12.957Z,100235.30
2022-12-14T08:54:43.433Z,100234.87
2022-12-14T09:10:07.741Z,100215.05
2022-12-14T09:12:36.088Z,100209.32
2022-12-14T09:15:09.403Z,100202.90
2022-12-14T09:17:38.092Z,100206.19
2022-12-14T09:20:07.678Z,100208.13
2022-12-14T09:22:36.005Z,100208.85
2022-12-14T09:25:05.186Z,100202.68
2022-12-14T09:27:33.938Z,100202.40
2022-12-14T09:30:05.410Z,100198.20
2022-12-14T09:32:33.593Z,100200.11
2022-12-14T09:35:02.108Z,100194.20
2022-12-14T09:37:30.662Z,100193.40
2022-12-14T09:39:58.993Z,100191.13
2022-12-14T09:42:39.428Z,100184.43
2022-12-14T09:45:19.122Z,100182.97
2022-12-14T09:47:56.480Z,100181.61
2022-12-14T09:50:25.839Z,100177.92
2022-12-14T09:53:01.138Z,100176.83
2022-12-14T09:55:29.501Z,100173.05
2022-12-14T09:58:05.458Z,100174.69
2022-12-14T10:00:38.163Z,100172.20
2022-12-14T10:03:18.818Z,100171.14
2022-12-14T10:05:53.270Z,100164.53
2022-12-14T10:08:29.241Z,100165.85
2022-12-14T10:11:19.561Z,100163.80
2022-12-14T10:14:00.120Z,100161.40
2022-12-14T10:16:51.840Z,100158.95
2022-12-14T10:19:52.755Z,100153.33
2022-12-14T10:22:26.851Z,100148.95
2022-12-14T10:25:12.166Z,100142.44
2022-12-14T10:28:09.921Z,100136.64
2022-12-14T10:30:36.542Z,100132.52
2022-12-14T10:33:14.784Z,100128.05
2022-12-14T10:35:51.448Z,100118.89
2022-12-14T10:38:46.012Z,100112.38
2022-12-14T10:41:41.174Z,100104.52
2022-12-14T10:44:31.520Z,100098.88
2022-12-14T10:47:26.201Z,100091.78
2022-12-14T10:50:20.186Z,100085.74
2022-12-14T10:52:53.940Z,100081.67
2022-12-14T10:55:33.206Z,100078.33
2022-12-14T10:58:01.696Z,100069.73
2022-12-14T11:00:30.531Z,100068.45
2022-12-14T11:02:59.319Z,100061.60
2022-12-14T11:05:36.144Z,100058.39
2022-12-14T11:08:07.486Z,100056.59
2022-12-14T11:10:39.101Z,100054.93
2022-12-14T11:13:17.562Z,100055.99
2022-12-14T11:15:48.728Z,100057.70
2022-12-14T11:18:17.295Z,100053.38
2022-12-14T11:21:02.714Z,100054.65
2022-12-14T11:23:36.433Z,100051.98
2022-12-14T11:26:12.049Z,100047.86
2022-12-14T11:28:51.911Z,100046.06
2022-12-14T11:31:33.300Z,100044.42
2022-12-14T11:34:04.607Z,100042.99
2022-12-14T11:36:38.951Z,100039.27
2022-12-14T11:39:13.553Z,100036.11
2022-12-14T11:41:51.539Z,100030.96
2022-12-14T11:44:19.789Z,100029.39
2022-12-14T11:47:02.072Z,100030.98
2022-12-14T11:49:40.138Z,100029.38
2022-12-14T11:52:24.805Z,100027.28
2022-12-14T11:54:54.339Z,100026.67
2022-12-14T11:57:31.398Z,100024.70
2022-12-14T12:00:04.903Z,100022.54
2022-12-14T12:02:40.171Z,100022.66
2022-12-14T12:05:14.790Z,100022.00
2022-12-14T12:07:52.539Z,100024.27
2022-12-14T12:10:41.051Z,100022.08
2022-12-14T12:13:41.326Z,100020.14
2022-12-14T12:16:14.359Z,100014.04
2022-12-14T12:18:50.369Z,100010.04
2022-12-14T12:21:41.362Z,100006.83
2022-12-14T12:24:34.066Z,100000.27
2022-12-14T12:27:11.590Z,99992.43
2022-12-14T12:29:49.352Z,99993.06
2022-12-14T12:32:25.471Z,99988.77
2022-12-14T12:35:07.337Z,99989.09
2022-12-14T12:37:57.029Z,99989.35
2022-12-14T12:40:33.846Z,99989.20
2022-12-14T12:43:19.550Z,99984.81
2022-12-14T12:46:01.641Z,99990.38
2022-12-14T12:48:30.450Z,99992.20
2022-12-14T12:51:06.623Z,99990.99
2022-12-14T12:53:44.180Z,99992.36
2022-12-14T12:56:17.474Z,99990.45
2022-12-14T12:58:52.611Z,99981.65
2022-12-14T13:01:28.534Z,99975.85
2022-12-14T13:04:02.992Z,99980.30
2022-12-14T13:06:57.179Z,99978.23
2022-12-14T13:09:53.828Z,99980.93
2022-12-14T13:12:47.918Z,99984.27
2022-12-14T13:15:33.964Z,99986.13
2022-12-14T13:18:40.836Z,99981.95
2022-12-14T13:21:28.903Z,99974.86
2022-12-14T13:23:57.872Z,99975.85
2022-12-14T13:26:57.826Z,99977.90
2022-12-14T13:29:44.735Z,99972.82
2022-12-14T13:32:43.989Z,99972.30
2022-12-14T13:35:36.983Z,99967.59
2022-12-14T13:38:51.028Z,99960.09
2022-12-14T13:41:34.460Z,99951.67
2022-12-14T13:44:33.263Z,99952.73
2022-12-14T13:47:06.894Z,99952.95
2022-12-14T13:49:36.005Z,99952.77
2022-12-14T13:52:04.622Z,99950.30
2022-12-14T13:54:38.569Z,99948.25
2022-12-14T13:57:14.057Z,99942.08
2022-12-14T13:59:47.268Z,99940.11
2022-12-14T14:02:28.179Z,99937.08
2022-12-14T14:05:15.161Z,99934.73
2022-12-14T14:07:50.987Z,99933.51
2022-12-14T14:10:36.902Z,99932.63
2022-12-14T14:13:28.441Z,99932.96
2022-12-14T14:16:28.101Z,99929.38
2022-12-14T14:19:20.683Z,99926.75
2022-12-14T14:22:26.724Z,99925.31
2022-12-14T14:25:00.549Z,99922.80
2022-12-14T14:27:36.319Z,99921.47
2022-12-14T14:30:27.789Z,99917.27
2022-12-14T14:33:20.010Z,99916.42
2022-12-14T14:35:49.559Z,99913.77
2022-12-14T14:38:31.763Z,99915.92
2022-12-14T14:41:18.038Z,99910.63
2022-12-14T14:43:55.346Z,99911.92
2022-12-14T14:46:38.342Z,99912.38
2022-12-14T14:49:32.751Z,99910.66
2022-12-14T14:52:38.636Z,99904.28
2022-12-14T14:58:22.329Z,99905.88
2022-12-14T15:01:28.830Z,99904.00
2022-12-14T15:04:05.957Z,99901.42
2022-12-14T15:06:43.251Z,99903.83
2022-12-14T15:09:32.988Z,99903.04
2022-12-14T15:12:19.883Z,99901.70
2022-12-14T15:14:54.330Z,99898.14
2022-12-14T15:17:25.147Z,99900.07
2022-12-14T15:19:58.832Z,99898.91
2022-12-14T15:22:43.211Z,99891.17
2022-12-14T15:25:21.550Z,99893.31
2022-12-14T15:27:50.583Z,99892.66
2022-12-14T15:30:25.472Z,99888.96
2022-12-14T15:32:56.671Z,99885.42
2022-12-14T15:35:29.948Z,99884.02
2022-12-14T15:38:03.093Z,99887.77
2022-12-14T15:40:33.888Z,99883.77
2022-12-14T15:43:15.790Z,99880.59
2022-12-14T15:45:53.536Z,99876.00
2022-12-14T15:48:34.458Z,99871.59
2022-12-14T15:51:06.587Z,99864.52
2022-12-14T15:53:36.872Z,99861.81
2022-12-14T15:56:41.108Z,99859.66
2022-12-14T15:59:24.170Z,99854.17
2022-12-14T16:02:10.057Z,99848.25
2022-12-14T16:04:38.582Z,99849.30
2022-12-14T16:07:18.854Z,99845.04
2022-12-14T16:09:53.827Z,99840.70
2022-12-14T16:12:39.563Z,99836.95
2022-12-14T16:15:23.579Z,99834.23
2022-12-14T16:18:02.781Z,99835.59
2022-12-14T16:20:34.429Z,99830.16
2022-12-14T16:23:16.460Z,99825.74
2022-12-14T16:25:58.566Z,99818.54
2022-12-14T16:28:38.224Z,99820.73
2022-12-14T16:31:24.830Z,99816.34
2022-12-14T16:34:18.734Z,99813.85
2022-12-14T16:37:08.439Z,99813.50
2022-12-14T16:39:41.408Z,99805.60
2022-12-14T16:42:21.390Z,99805.00
2022-12-14T16:44:54.095Z,99802.00
2022-12-14T16:47:49.078Z,99804.29
2022-12-14T16:53:22.811Z,99798.11
2022-12-14T16:56:03.444Z,99798.04
2022-12-14T16:58:34.288Z,99795.50
2022-12-14T17:01:08.906Z,99793.86
2022-12-14T17:03:38.624Z,99787.05
2022-12-14T17:06:09.529Z,99785.09
2022-12-14T17:08:40.122Z,99784.17
2022-12-14T17:11:14.097Z,99780.54
2022-12-14T17:13:42.629Z,99780.73
2022-12-14T17:16:20.754Z,99779.98
2022-12-14T17:18:51.560Z,99775.84
2022-12-14T17:21:27.551Z,99768.73
2022-12-14T17:23:57.487Z,99766.45
2022-12-14T17:26:28.459Z,99768.70
2022-12-14T17:28:57.464Z,99766.48
2022-12-14T17:31:28.087Z,99767.28
2022-12-14T17:33:58.824Z,99769.13
2022-12-14T17:36:29.950Z,99764.30
2022-12-14T17:38:59.560Z,99757.09
2022-12-14T17:41:30.686Z,99749.52
2022-12-14T17:44:00.638Z,99749.66
2022-12-14T17:46:29.846Z,99740.99
2022-12-14T17:49:06.148Z,99736.42
2022-12-14T17:51:42.103Z,99727.31
2022-12-14T17:54:21.529Z,99727.31
2022-12-14T17:56:54.192Z,99723.23
2022-12-14T17:59:23.749Z,99722.30
2022-12-14T18:01:53.325Z,99722.67
2022-12-14T18:04:22.404Z,99722.67
2022-12-14T18:06:54.184Z,99723.34
2022-12-14T18:09:25.386Z,99720.07
2022-12-14T18:12:22.202Z,99718.58
2022-12-14T18:14:48.998Z,99714.54
2022-12-14T18:17:19.560Z,99711.09
2022-12-14T18:19:54.312Z,99707.95
2022-12-14T18:22:34.313Z,99705.42
2022-12-14T18:25:04.601Z,99706.05
2022-12-14T18:27:36.250Z,99704.85
2022-12-14T18:30:07.162Z,99696.39
2022-12-14T18:32:37.050Z,99690.45
2022-12-14T18:35:07.882Z,99684.42
2022-12-14T18:37:37.333Z,99681.78
2022-12-14T18:40:09.259Z,99676.73
2022-12-14T18:42:44.139Z,99672.05
2022-12-14T18:45:32.183Z,99674.00
2022-12-14T18:48:04.168Z,99673.09
2022-12-14T18:50:41.044Z,99670.89
2022-12-14T18:53:22.000Z,99666.55
2022-12-14T18:55:54.684Z,99666.13
2022-12-14T18:58:30.393Z,99666.96
2022-12-14T19:01:02.393Z,99669.95
2022-12-14T19:03:36.070Z,99665.06
2022-12-14T19:06:43.094Z,99665.62
2022-12-14T19:09:06.919Z,99665.46
2022-12-14T19:11:42.368Z,99665.05
2022-12-14T19:14:13.561Z,99664.58
2022-12-14T19:16:45.032Z,99668.67
2022-12-14T19:19:18.767Z,99665.91
2022-12-14T19:21:54.100Z,99665.24
2022-12-14T19:24:25.999Z,99665.39
2022-12-14T19:26:57.112Z,99662.73
2022-12-14T19:29:30.933Z,99664.85
2022-12-14T19:32:05.813Z,99668.10
2022-12-14T19:34:39.538Z,99665.69
2022-12-14T19:37:11.422Z,99662.11
2022-12-14T19:39:44.453Z,99661.23
2022-12-14T19:42:18.561Z,99666.38
2022-12-14T19:44:51.994Z,99671.95
2022-12-14T19:47:22.796Z,99675.04
2022-12-14T19:49:55.034Z,99678.43
2022-12-14T19:52:26.156Z,99674.40
2022-12-14T19:54:57.772Z,99675.96
2022-12-14T19:57:31.219Z,99678.45
2022-12-14T20:00:01.980Z,99674.33
2022-12-14T20:02:44.534Z,99670.49
2022-12-14T20:05:21.659Z,99669.55
2022-12-14T20:07:55.752Z,99670.76
2022-12-14T20:10:28.499Z,99661.62
2022-12-14T20:13:02.602Z,99662.68
2022-12-14T20:15:50.479Z,99663.94
2022-12-14T20:18:22.919Z,99656.17
2022-12-14T20:20:55.764Z,99659.91
2022-12-14T20:23:28.434Z,99656.86
2022-12-14T20:26:03.211Z,99654.65
2022-12-14T20:28:36.182Z,99651.67
2022-12-14T20:31:09.528Z,99650.88
2022-12-14T20:33:41.229Z,99647.61
2022-12-14T20:36:13.300Z,99645.38
2022-12-14T20:38:43.790Z,99644.43
2022-12-14T20:41:19.869Z,99643.48
2022-12-14T20:43:50.296Z,99644.19
2022-12-14T20:46:44.843Z,99645.77
2022-12-14T20:49:18.726Z,99650.55
2022-12-14T20:51:52.652Z,99646.34
2022-12-14T20:54:25.716Z,99648.45
2022-12-14T20:56:59.189Z,99648.71
2022-12-14T20:59:33.942Z,99644.38
2022-12-14T21:02:04.118Z,99646.04
2022-12-14T21:04:35.488Z,99644.64
2022-12-14T21:07:05.290Z,99640.52
2022-12-14T21:09:35.081Z,99643.76
2022-12-14T21:12:22.353Z,99641.74
2022-12-14T21:14:54.165Z,99639.41
2022-12-14T21:17:26.599Z,99632.39
2022-12-14T21:19:56.862Z,99630.81
2022-12-14T21:22:30.548Z,99627.38
2022-12-14T21:25:03.723Z,99622.05
2022-12-14T21:27:38.678Z,99626.76
2022-12-14T21:30:10.995Z,99617.71
2022-12-14T21:32:40.442Z,99608.08
2022-12-14T21:35:10.652Z,99609.80
2022-12-14T21:37:40.129Z,99604.05
2022-12-14T21:40:29.968Z,99612.00
2022-12-14T21:43:01.233Z,99606.81
2022-12-14T21:45:29.891Z,99611.12
2022-12-14T21:48:01.051Z,99608.77
2022-12-14T21:50:29.630Z,99604.31
2022-12-14T21:53:00.597Z,99600.92
2022-12-14T21:55:32.241Z,99588.30
2022-12-14T21:58:17.818Z,99585.65
2022-12-14T22:00:46.223Z,99583.17
2022-12-14T22:03:14.705Z,99582.57
2022-12-14T22:05:48.376Z,99582.55
2022-12-14T22:08:16.743Z,99586.32
2022-12-14T22:10:45.110Z,99585.39
2022-12-14T22:13:13.394Z,99588.16
2022-12-14T22:15:41.731Z,99582.36
2022-12-14T22:18:10.192Z,99582.92
2022-12-14T22:20:38.658Z,99580.08
2022-12-14T22:23:07.153Z,99573.35
2022-12-14T22:25:35.558Z,99573.12
2022-12-14T22:28:04.221Z,99570.90
2022-12-14T22:30:33.001Z,99567.31
2022-12-14T22:33:01.265Z,99569.52
2022-12-14T22:35:29.533Z,99565.16
2022-12-14T22:37:59.157Z,99557.60
2022-12-14T22:40:27.653Z,99553.36
2022-12-14T22:42:56.289Z,99549.26
2022-12-14T22:45:24.848Z,99542.21
2022-12-14T22:47:54.191Z,99542.59
2022-12-14T22:50:22.522Z,99540.09
2022-12-14T22:52:51.105Z,99537.25
2022-12-14T22:55:19.519Z,99534.21
2022-12-14T22:57:48.481Z,99531.52
2022-12-14T23:00:17.374Z,99530.86
2022-12-14T23:02:48.653Z,99527.97
2022-12-14T23:05:20.192Z,99531.47
2022-12-14T23:07:48.712Z,99522.09
2022-12-14T23:10:34.690Z,99516.30
2022-12-14T23:13:21.591Z,99515.45
2022-12-14T23:16:08.028Z,99513.52
2022-12-14T23:18:54.623Z,99523.52
2022-12-14T23:21:40.851Z,99518.73
2022-12-14T23:24:26.860Z,99513.75
2022-12-14T23:27:12.931Z,99516.44
2022-12-14T23:29:59.689Z,99508.54
2022-12-14T23:32:45.611Z,99507.63
2022-12-14T23:35:31.660Z,99504.28
2022-12-14T23:38:23.380Z,99502.00
2022-12-14T23:41:09.778Z,99495.93
2022-12-14T23:43:55.771Z,99495.38
2022-12-14T23:46:42.455Z,99500.47
2022-12-14T23:49:28.629Z,99500.21
2022-12-14T23:52:15.370Z,99497.34
2022-12-14T23:55:02.008Z,99494.92
2022-12-14T23:57:48.069Z,99496.15
